Time;durP1;ratioP1;P1;durP2;ratioP2;P2;SDS_P1;SDS_P2;PMS_P1;PMS_P2;Temp;Humidity;BMP_temperature;BMP_pressure;BME280_temperature;BME280_humidity;BME280_pressure;Samples;Min_cycle;Max_cycle;Signal;HPM_P1;HPM_P2
2022/07/18 00:00:06;;;;;;;1.60;1.50;;;;;;;17.38;90.24;100975.75;4959720;28;20186;-76
2022/07/18 00:02:31;;;;;;;1.83;1.73;;;;;;;17.33;90.55;100969.78;4948248;28;20209;-76
2022/07/18 00:04:57;;;;;;;3.30;2.00;;;;;;;17.28;90.51;100972.50;4949209;28;20643;-75
2022/07/18 00:07:22;;;;;;;2.17;1.90;;;;;;;17.25;90.92;100977.81;4947324;28;20273;-75
2022/07/18 00:09:47;;;;;;;2.23;1.53;;;;;;;17.22;90.65;100972.66;4957386;28;20560;-76
2022/07/18 00:12:16;;;;;;;2.83;2.10;;;;;;;17.19;91.21;100977.97;4959507;28;20185;-77
2022/07/18 00:14:42;;;;;;;2.30;2.10;;;;;;;17.16;90.87;100970.22;4957973;28;20274;-76
2022/07/18 00:17:11;;;;;;;1.90;1.80;;;;;;;17.10;90.07;100971.19;4943199;28;20216;-76
2022/07/18 00:19:40;;;;;;;1.93;1.63;;;;;;;17.09;89.90;100974.75;4942407;28;20727;-76
2022/07/18 00:22:06;;;;;;;2.07;1.80;;;;;;;17.08;90.01;100977.38;4961780;28;20297;-76
2022/07/18 00:24:31;;;;;;;2.40;1.80;;;;;;;17.03;89.88;100975.72;4947083;28;20266;-76
2022/07/18 00:26:59;;;;;;;2.27;1.90;;;;;;;17.01;89.92;100977.56;4977267;28;20210;-77
2022/07/18 00:29:25;;;;;;;3.40;1.83;;;;;;;16.98;90.14;100980.22;4946619;28;20196;-76
2022/07/18 00:31:51;;;;;;;2.20;2.00;;;;;;;16.91;89.77;100971.66;4959723;28;21194;-77
2022/07/18 00:34:16;;;;;;;1.90;1.70;;;;;;;16.89;90.52;100967.34;4964402;28;20234;-77
2022/07/18 00:36:41;;;;;;;2.70;1.93;;;;;;;16.88;91.34;100969.09;4955204;28;20270;-77
2022/07/18 00:39:07;;;;;;;2.07;1.83;;;;;;;16.85;92.17;100968.34;4945655;28;20317;-77
2022/07/18 00:41:32;;;;;;;2.23;2.03;;;;;;;16.80;92.30;100967.56;4966054;28;20221;-76
2022/07/18 00:43:58;;;;;;;1.77;1.67;;;;;;;16.75;92.53;100971.16;4963491;28;20205;-77
2022/07/18 00:46:24;;;;;;;2.03;1.83;;;;;;;16.73;93.26;100972.94;4978556;28;20650;-76
2022/07/18 00:48:51;;;;;;;3.20;1.83;;;;;;;16.71;93.72;100963.41;4964638;28;20205;-76
2022/07/18 00:51:16;;;;;;;2.23;1.90;;;;;;;16.66;93.73;100965.28;4964948;28;20178;-76
2022/07/18 00:53:43;;;;;;;3.20;2.00;;;;;;;16.60;94.05;100966.28;4969941;28;20200;-76
2022/07/18 00:56:13;;;;;;;2.30;1.93;;;;;;;16.54;93.89;100969.06;4964659;28;20185;-76
2022/07/18 00:58:39;;;;;;;2.17;2.03;;;;;;;16.46;94.13;100969.22;4964302;28;20207;-76
2022/07/18 01:03:48;;;;;;;2.27;1.80;;;;;;;16.32;94.11;100973.91;4967118;28;20252;-76
2022/07/18 01:06:14;;;;;;;2.20;2.10;;;;;;;16.25;94.45;100971.41;4964328;28;20198;-76
2022/07/18 01:08:42;;;;;;;3.00;1.80;;;;;;;16.21;95.16;100971.50;4945272;28;20210;-76
2022/07/18 01:11:08;;;;;;;1.77;1.67;;;;;;;16.16;95.11;100979.44;4947804;28;20459;-76
2022/07/18 01:13:33;;;;;;;2.40;2.20;;;;;;;16.11;95.21;100973.47;4958802;28;20682;-76
2022/07/18 01:15:59;;;;;;;2.00;1.90;;;;;;;16.08;95.71;100981.34;4964466;28;20186;-76
2022/07/18 01:18:24;;;;;;;3.73;2.10;;;;;;;16.03;95.90;100972.78;4948705;28;20245;-76
2022/07/18 01:20:52;;;;;;;2.40;2.20;;;;;;;15.99;96.20;100978.06;4966191;28;20214;-76
2022/07/18 01:23:17;;;;;;;1.80;1.70;;;;;;;15.97;96.40;100971.13;4974081;28;20221;-76
2022/07/18 01:25:43;;;;;;;2.20;2.00;;;;;;;15.96;96.80;100974.63;4963835;28;20661;-77
2022/07/18 01:28:09;;;;;;;2.40;1.80;;;;;;;15.95;97.44;100972.94;4965003;28;20219;-76
2022/07/18 01:30:34;;;;;;;2.07;1.93;;;;;;;15.92;97.69;100973.00;4966558;28;20190;-76
2022/07/18 01:33:02;;;;;;;2.30;2.17;;;;;;;15.88;97.89;100974.81;4944715;28;20197;-76
2022/07/18 01:35:29;;;;;;;3.00;2.00;;;;;;;15.85;98.05;100977.47;4959953;28;20201;-76
2022/07/18 01:37:56;;;;;;;2.10;1.97;;;;;;;15.82;98.45;100974.88;4958904;28;20291;-75
2022/07/18 01:40:22;;;;;;;3.23;2.17;;;;;;;15.78;98.50;100981.91;4963538;28;20714;-76
2022/07/18 01:42:48;;;;;;;2.37;2.10;;;;;;;15.70;98.23;100976.84;4945447;28;20221;-76
2022/07/18 01:45:15;;;;;;;2.00;1.90;;;;;;;15.66;98.48;100974.31;4960858;28;20196;-75
2022/07/18 01:47:41;;;;;;;2.30;1.80;;;;;;;15.60;98.85;100970.06;4945536;28;20713;-75
2022/07/18 01:50:07;;;;;;;2.20;2.10;;;;;;;15.56;98.88;100968.44;4942346;28;20190;-76
2022/07/18 01:52:33;;;;;;;2.47;2.27;;;;;;;15.51;99.03;100967.63;4969431;28;20209;-77
2022/07/18 01:54:58;;;;;;;2.43;2.23;;;;;;;15.45;99.06;100971.22;4962693;28;20217;-76
2022/07/18 01:57:23;;;;;;;2.43;2.20;;;;;;;15.41;99.49;100963.50;4977289;28;20213;-76
2022/07/18 01:59:49;;;;;;;2.97;1.73;;;;;;;15.38;99.70;100964.38;4978566;28;20207;-76
2022/07/18 02:02:15;;;;;;;2.80;2.13;;;;;;;15.36;99.58;100966.16;4963012;28;20274;-76
2022/07/18 02:07:24;;;;;;;1.80;1.70;;;;;;;15.20;99.15;100976.84;4961900;28;20231;-76
2022/07/18 02:09:50;;;;;;;3.03;2.07;;;;;;;15.16;99.12;100970.00;4961055;28;20188;-77
2022/07/18 02:12:15;;;;;;;2.07;1.87;;;;;;;15.13;98.90;100970.03;4957909;28;20225;-75
2022/07/18 02:14:40;;;;;;;2.37;2.17;;;;;;;15.12;99.28;100972.69;4972487;28;20195;-76
2022/07/18 02:17:06;;;;;;;2.60;2.00;;;;;;;15.08;99.40;100972.75;4964540;28;20317;-76
2022/07/18 02:19:31;;;;;;;2.00;1.80;;;;;;;15.09;99.11;100970.97;4956272;28;20208;-76
2022/07/18 02:21:56;;;;;;;2.33;2.10;;;;;;;15.09;99.04;100968.38;4947168;28;20216;-76
2022/07/18 02:24:22;;;;;;;2.53;2.20;;;;;;;15.11;99.23;100978.78;4950528;28;20209;-75
2022/07/18 02:26:47;;;;;;;2.27;2.07;;;;;;;15.12;99.44;100977.91;4967117;28;20195;-76
2022/07/18 02:29:12;;;;;;;2.20;1.97;;;;;;;15.11;99.30;100979.63;4964562;28;20220;-76
2022/07/18 02:31:38;;;;;;;1.90;1.80;;;;;;;15.10;99.42;100967.47;4945308;28;20660;-76
2022/07/18 02:34:09;;;;;;;2.03;1.83;;;;;;;15.13;99.77;100970.03;4948236;28;20270;-76
2022/07/18 02:36:36;;;;;;;2.53;2.27;;;;;;;15.11;99.87;100976.19;4943833;29;20186;-76
2022/07/18 02:39:04;;;;;;;1.93;1.80;;;;;;;15.09;99.64;100971.84;4958838;28;20657;-76
2022/07/18 02:41:29;;;;;;;2.00;1.90;;;;;;;15.09;99.85;100965.75;4959902;28;20585;-76
2022/07/18 02:43:55;;;;;;;2.53;2.20;;;;;;;15.08;99.41;100966.66;4972084;28;20190;-76
2022/07/18 02:46:20;;;;;;;2.10;1.90;;;;;;;15.09;99.80;100968.38;4963787;28;20194;-76
2022/07/18 02:48:45;;;;;;;2.53;1.90;;;;;;;15.07;99.80;100964.91;4973852;28;20639;-76
2022/07/18 02:51:11;;;;;;;2.20;2.00;;;;;;;15.05;99.56;100966.72;4944053;28;20193;-76
2022/07/18 02:53:36;;;;;;;2.17;1.97;;;;;;;15.03;99.31;100965.88;4959137;28;20194;-76
2022/07/18 02:56:02;;;;;;;2.30;2.10;;;;;;;15.03;99.51;100965.88;4946256;28;20190;-76
2022/07/18 02:58:27;;;;;;;3.63;2.13;;;;;;;15.01;99.46;100968.50;4956384;28;20249;-75
2022/07/18 03:00:52;;;;;;;2.27;2.00;;;;;;;14.98;99.11;100971.16;4943163;28;20207;-76
2022/07/18 03:03:18;;;;;;;2.37;2.17;;;;;;;14.98;99.20;100975.50;4960694;28;20276;-77
2022/07/18 03:05:43;;;;;;;1.90;1.80;;;;;;;14.97;99.64;100971.19;4961312;28;20186;-76
2022/07/18 03:08:08;;;;;;;2.43;2.20;;;;;;;14.94;100.00;100975.56;4963086;28;20308;-76
2022/07/18 03:10:34;;;;;;;2.20;2.00;;;;;;;14.91;99.82;100973.00;4958958;28;20187;-76
2022/07/18 03:12:59;;;;;;;3.00;2.17;;;;;;;14.85;99.82;100977.44;4963630;28;20199;-76
2022/07/18 03:15:25;;;;;;;2.70;2.17;;;;;;;14.78;99.92;100976.69;4964298;28;20197;-76
2022/07/18 03:17:50;;;;;;;2.00;1.90;;;;;;;14.73;99.72;100970.69;4942827;28;20220;-76
2022/07/18 03:20:15;;;;;;;3.90;2.50;;;;;;;14.69;99.54;100967.25;4958439;28;20199;-76
2022/07/18 03:22:41;;;;;;;2.50;2.13;;;;;;;14.62;99.09;100968.22;4939666;28;20850;-76
2022/07/18 03:25:07;;;;;;;2.27;2.03;;;;;;;14.56;99.18;100966.56;4962133;28;20328;-76
2022/07/18 03:27:32;;;;;;;2.10;1.90;;;;;;;14.55;98.99;100962.25;4960501;28;20224;-76
2022/07/18 03:29:58;;;;;;;2.40;2.20;;;;;;;14.55;99.09;100967.44;4958747;28;20217;-76
2022/07/18 03:32:24;;;;;;;2.23;2.03;;;;;;;14.56;99.12;100963.97;4949893;28;20312;-76
2022/07/18 03:34:49;;;;;;;2.17;1.97;;;;;;;14.58;99.09;100974.34;4958683;28;20187;-75
2022/07/18 03:37:14;;;;;;;2.30;2.10;;;;;;;14.59;98.94;100963.94;4962906;28;20216;-76
2022/07/18 03:39:40;;;;;;;3.57;2.50;;;;;;;14.62;99.37;100963.00;4954912;28;20617;-75
2022/07/18 03:42:05;;;;;;;2.93;2.20;;;;;;;14.62;99.59;100963.84;4962301;28;20215;-75
2022/07/18 03:44:31;;;;;;;3.00;2.10;;;;;;;14.63;99.36;100962.97;4958632;28;20287;-75
2022/07/18 03:46:56;;;;;;;2.50;2.30;;;;;;;14.66;99.08;100958.59;4973064;28;20273;-75
2022/07/18 03:49:21;;;;;;;2.30;2.10;;;;;;;14.68;99.71;100954.25;4950466;28;20200;-76
2022/07/18 03:51:47;;;;;;;2.30;2.20;;;;;;;14.69;99.60;100958.59;4948819;28;20301;-76
2022/07/18 03:54:12;;;;;;;2.07;1.97;;;;;;;14.70;99.58;100945.53;4947416;28;20198;-75
2022/07/18 03:56:38;;;;;;;2.53;2.20;;;;;;;14.73;99.17;100957.66;4975637;28;20596;-76
2022/07/18 03:59:04;;;;;;;2.10;2.00;;;;;;;14.76;98.94;100960.19;4962798;28;20220;-76
2022/07/18 04:01:29;;;;;;;4.00;2.40;;;;;;;14.78;98.55;100963.66;4966744;28;20242;-76
2022/07/18 04:03:54;;;;;;;3.20;2.30;;;;;;;14.80;98.50;100963.66;4947946;28;20181;-75
2022/07/18 04:06:20;;;;;;;2.40;2.13;;;;;;;14.85;98.44;100957.47;4960879;28;20193;-75
2022/07/18 04:08:45;;;;;;;2.40;2.20;;;;;;;14.89;98.15;100966.97;4976351;28;20234;-76
2022/07/18 04:11:11;;;;;;;2.23;2.10;;;;;;;14.97;97.97;100963.38;4963088;28;20605;-75
2022/07/18 04:13:37;;;;;;;2.43;2.23;;;;;;;15.04;97.85;100962.38;4958545;28;20205;-75
2022/07/18 04:16:02;;;;;;;2.23;2.03;;;;;;;15.13;98.00;100966.56;4982848;28;20592;-76
2022/07/18 04:18:27;;;;;;;2.37;2.17;;;;;;;15.22;97.67;100980.31;4961412;28;20582;-76
2022/07/18 04:20:53;;;;;;;2.50;2.30;;;;;;;15.31;97.31;100979.28;4950068;28;20185;-76
2022/07/18 04:23:18;;;;;;;2.53;2.10;;;;;;;15.43;96.91;100982.59;4966730;28;20208;-75
2022/07/18 04:25:44;;;;;;;2.00;1.90;;;;;;;15.53;96.89;100979.75;4962615;28;20675;-77
2022/07/18 04:28:11;;;;;;;2.30;2.10;;;;;;;15.63;96.35;100982.22;4968637;28;20756;-76
2022/07/18 04:30:38;;;;;;;2.77;2.07;;;;;;;15.88;95.51;100979.16;4962949;28;20197;-75
2022/07/18 04:33:05;;;;;;;1.83;1.73;;;;;;;16.42;93.40;100976.25;4961147;28;20237;-75
2022/07/18 04:35:31;;;;;;;2.70;2.10;;;;;;;17.17;91.16;100977.13;4963996;28;20195;-75
2022/07/18 04:37:57;;;;;;;2.10;1.90;;;;;;;17.76;88.97;100962.53;4969853;28;20240;-75
2022/07/18 04:40:23;;;;;;;2.00;1.80;;;;;;;17.97;87.78;100961.03;4953859;28;20218;-77
2022/07/18 04:42:49;;;;;;;2.00;1.80;;;;;;;18.13;87.02;100964.09;4974957;28;20220;-75
2022/07/18 04:45:15;;;;;;;2.63;2.07;;;;;;;18.31;86.79;100973.16;4971786;28;20190;-77
2022/07/18 04:47:41;;;;;;;2.97;2.20;;;;;;;18.39;86.27;100975.53;4954926;28;20210;-76
2022/07/18 04:50:07;;;;;;;2.67;1.90;;;;;;;18.45;86.15;100969.28;4955103;28;20193;-75
2022/07/18 04:52:40;;;;;;;2.10;1.90;;;;;;;18.58;85.80;100970.59;4969442;28;20282;-76
2022/07/18 04:55:07;;;;;;;2.57;1.93;;;;;;;18.76;85.18;100973.50;4956056;28;20195;-76
2022/07/18 04:57:32;;;;;;;1.77;1.67;;;;;;;19.08;84.20;100972.50;4965026;28;20219;-75
2022/07/18 04:59:58;;;;;;;2.13;1.70;;;;;;;19.33;83.47;100987.41;4970049;28;20652;-76
2022/07/18 05:02:23;;;;;;;1.93;1.70;;;;;;;19.46;83.23;100975.56;4961094;28;20233;-73
2022/07/18 05:04:48;;;;;;;2.27;2.07;;;;;;;19.49;82.84;100978.09;4966310;28;20196;-76
2022/07/18 05:07:14;;;;;;;2.10;1.90;;;;;;;19.50;82.84;100974.56;4970927;28;20214;-76
2022/07/18 05:09:39;;;;;;;2.00;1.80;;;;;;;20.00;81.75;100979.81;4946765;28;21778;-76
2022/07/18 05:12:04;;;;;;;2.53;1.90;;;;;;;20.55;80.41;100980.34;4960218;28;20212;-76
2022/07/18 05:14:30;;;;;;;2.43;1.63;;;;;;;20.78;79.77;100985.63;4965356;28;20226;-76
2022/07/18 05:16:55;;;;;;;2.97;1.90;;;;;;;21.11;78.74;100991.25;4970352;28;20219;-75
2022/07/18 05:19:21;;;;;;;4.17;2.07;;;;;;;21.80;76.35;100993.59;4971196;28;20668;-76
2022/07/18 05:21:46;;;;;;;4.50;2.00;;;;;;;22.63;74.00;100988.91;4953949;28;20225;-76
2022/07/18 05:24:13;;;;;;;2.50;1.93;;;;;;;23.42;72.15;100991.16;4967023;28;20205;-75
2022/07/18 05:26:38;;;;;;;2.37;2.17;;;;;;;23.97;70.85;100989.22;4957101;28;20194;-76
2022/07/18 05:29:04;;;;;;;1.90;1.80;;;;;;;24.25;69.90;100985.06;4944234;28;20209;-76
2022/07/18 05:31:29;;;;;;;2.20;2.00;;;;;;;24.56;69.24;100977.16;4964558;28;20185;-76
2022/07/18 05:33:55;;;;;;;1.97;1.70;;;;;;;25.18;68.17;100985.09;4960423;28;20182;-76
2022/07/18 05:36:20;;;;;;;3.53;2.13;;;;;;;25.98;66.54;100982.00;4964371;28;20189;-76
2022/07/18 05:38:45;;;;;;;2.33;1.97;;;;;;;26.78;64.82;100977.81;4949872;28;20202;-75
2022/07/18 05:41:11;;;;;;;5.13;2.03;;;;;;;27.45;63.69;100979.56;4967497;28;20241;-76
2022/07/18 05:43:36;;;;;;;3.27;1.80;;;;;;;28.12;61.79;100966.91;4976558;28;20218;-76
2022/07/18 05:46:01;;;;;;;4.07;1.73;;;;;;;28.85;60.87;100972.25;4945891;28;20213;-75
2022/07/18 05:48:27;;;;;;;3.83;2.00;;;;;;;29.47;59.49;100976.38;4960519;28;20612;-74
2022/07/18 05:50:52;;;;;;;2.33;1.60;;;;;;;30.01;58.22;100973.13;4945840;28;20186;-74
2022/07/18 05:53:18;;;;;;;3.17;1.53;;;;;;;30.52;57.03;100971.63;4970080;28;20192;-75
2022/07/18 05:55:43;;;;;;;3.00;1.80;;;;;;;30.77;55.79;100966.97;4966657;28;20186;-76
2022/07/18 05:58:09;;;;;;;3.37;2.17;;;;;;;30.66;54.53;100952.66;4955070;28;20222;-77
2022/07/18 06:00:35;;;;;;;3.93;2.03;;;;;;;30.83;53.93;100961.09;4950815;28;20289;-74
2022/07/18 06:03:00;;;;;;;3.13;1.90;;;;;;;31.08;53.43;100951.00;4970150;28;20633;-77
2022/07/18 06:05:26;;;;;;;2.43;2.13;;;;;;;31.25;52.89;100953.06;4968961;28;20193;-75
2022/07/18 06:07:56;;;;;;;3.77;2.10;;;;;;;31.48;52.09;100956.41;4934515;29;20301;-76
2022/07/18 06:10:23;;;;;;;3.97;2.00;;;;;;;31.81;51.97;100952.75;4951424;29;20208;-76
2022/07/18 06:12:49;;;;;;;2.43;1.80;;;;;;;32.07;52.26;100947.75;4958230;28;20273;-74
2022/07/18 06:15:15;;;;;;;4.93;2.15;;;;;;;32.35;51.37;100950.63;4970123;28;20190;-76
2022/07/18 06:17:41;;;;;;;3.00;2.17;;;;;;;32.66;51.11;100951.34;4969857;28;20650;-75
2022/07/18 06:20:07;;;;;;;5.43;2.10;;;;;;;32.65;49.64;100943.41;4964021;28;20179;-76
2022/07/18 06:22:34;;;;;;;3.80;1.63;;;;;;;32.40;48.91;100944.84;4934545;28;20218;-76
2022/07/18 06:24:59;;;;;;;4.70;1.95;;;;;;;32.22;48.33;100951.72;4956190;28;20193;-75
2022/07/18 06:27:25;;;;;;;6.65;2.13;;;;;;;31.93;48.65;100947.16;4969916;28;20689;-74
2022/07/18 06:29:50;;;;;;;4.77;2.40;;;;;;;31.85;48.50;100941.63;4964617;28;20944;-76
2022/07/18 06:32:15;;;;;;;2.90;1.70;;;;;;;31.88;49.16;100940.53;4965834;28;20204;-74
2022/07/18 06:34:41;;;;;;;2.73;1.63;;;;;;;31.87;48.54;100941.50;4961057;28;20217;-76
2022/07/18 06:37:06;;;;;;;4.97;2.20;;;;;;;31.77;48.92;100949.50;4960750;28;20693;-76
2022/07/18 06:39:32;;;;;;;3.80;1.38;;;;;;;31.99;49.01;100943.09;4972066;28;20193;-76
2022/07/18 06:41:57;;;;;;;3.83;1.98;;;;;;;32.17;48.65;100951.28;4951282;28;20280;-75
2022/07/18 06:44:22;;;;;;;4.68;2.20;;;;;;;32.30;48.69;100950.19;4966542;28;20290;-75
2022/07/18 06:46:48;;;;;;;5.85;1.60;;;;;;;32.25;48.33;100939.03;4959642;28;20791;-74
2022/07/18 06:49:15;;;;;;;2.45;1.80;;;;;;;32.25;48.28;100944.38;4949863;28;20690;-76
2022/07/18 06:51:40;;;;;;;2.42;1.40;;;;;;;32.42;48.53;100951.75;4961083;28;20198;-75
2022/07/18 06:54:06;;;;;;;2.63;1.65;;;;;;;32.60;48.58;100941.16;4967841;28;20340;-76
2022/07/18 06:56:32;;;;;;;3.00;1.88;;;;;;;32.45;48.06;100954.13;4969004;28;20239;-76
2022/07/18 06:58:57;;;;;;;2.58;1.90;;;;;;;32.33;47.65;100955.25;4951274;28;20241;-77
2022/07/18 07:01:23;;;;;;;3.30;1.63;;;;;;;32.27;47.78;100948.63;4960301;28;20585;-76
2022/07/18 07:03:48;;;;;;;5.40;1.95;;;;;;;32.25;48.01;100955.94;4968904;28;20276;-75
2022/07/18 07:06:15;;;;;;;3.78;1.90;;;;;;;32.28;48.23;100944.97;4968871;28;20365;-75
2022/07/18 07:08:41;;;;;;;6.43;1.92;;;;;;;32.41;47.79;100947.38;4975117;28;20690;-75
2022/07/18 07:11:07;;;;;;;3.13;1.98;;;;;;;32.80;47.96;100947.34;4950358;28;20181;-75
2022/07/18 07:13:32;;;;;;;1.60;1.40;;;;;;;33.05;47.48;100947.75;4964583;28;20181;-76
2022/07/18 07:15:58;;;;;;;1.83;1.42;;;;;;;33.24;47.16;100937.94;4964921;28;20204;-76
2022/07/18 07:18:23;;;;;;;2.17;1.70;;;;;;;33.22;47.00;100935.44;4951149;28;20204;-75
2022/07/18 07:20:49;;;;;;;2.40;1.80;;;;;;;33.11;46.36;100938.28;4965281;28;20265;-74
2022/07/18 07:23:14;;;;;;;2.83;2.08;;;;;;;32.75;46.57;100949.59;4948159;28;20190;-75
2022/07/18 07:25:40;;;;;;;4.25;2.33;;;;;;;32.44;47.03;100951.59;4958462;28;20193;-74
2022/07/18 07:28:06;;;;;;;4.03;1.80;;;;;;;32.42;47.28;100950.91;4968627;28;20201;-76
2022/07/18 07:30:33;;;;;;;3.70;1.98;;;;;;;32.53;47.42;100946.25;4965014;28;20186;-76
2022/07/18 07:32:59;;;;;;;2.20;1.73;;;;;;;32.56;47.29;100947.78;4968780;28;20174;-76
2022/07/18 07:35:25;;;;;;;4.45;1.80;;;;;;;32.46;47.36;100950.47;4951283;28;21055;-77
2022/07/18 07:37:53;;;;;;;1.98;1.60;;;;;;;32.40;47.28;100945.69;4968831;28;20202;-74
2022/07/18 07:40:19;;;;;;;2.77;1.90;;;;;;;32.36;47.73;100950.50;4948380;28;20193;-75
2022/07/18 07:42:45;;;;;;;5.57;2.10;;;;;;;32.13;47.50;100959.72;4946254;28;20198;-77
2022/07/18 07:45:12;;;;;;;3.50;1.63;;;;;;;31.91;47.36;100954.47;4949749;28;20204;-74
2022/07/18 07:47:38;;;;;;;3.40;1.58;;;;;;;31.78;47.69;100951.19;4949731;28;20344;-76
2022/07/18 07:50:05;;;;;;;3.63;1.70;;;;;;;31.80;47.95;100953.72;4965303;28;20273;-75
2022/07/18 07:52:31;;;;;;;1.65;1.55;;;;;;;31.94;47.94;100950.66;4955476;28;20180;-74
2022/07/18 07:54:56;;;;;;;3.97;1.90;;;;;;;31.82;47.73;100944.59;4958814;28;20182;-77
2022/07/18 07:57:21;;;;;;;3.33;1.83;;;;;;;31.54;47.88;100947.00;4969022;28;20753;-77
2022/07/18 07:59:47;;;;;;;3.67;1.70;;;;;;;31.42;48.40;100946.25;4955363;28;20222;-73
2022/07/18 08:02:14;;;;;;;4.15;1.85;;;;;;;31.37;48.38;100943.13;4972266;28;20202;-74
2022/07/18 08:04:40;;;;;;;5.37;1.70;;;;;;;31.02;48.51;100941.66;4948112;28;20182;-74
2022/07/18 08:07:05;;;;;;;1.90;1.40;;;;;;;30.91;48.97;100934.56;4986826;28;20204;-76
2022/07/18 08:09:30;;;;;;;3.97;1.87;;;;;;;30.80;49.29;100927.47;4946121;28;20178;-76
2022/07/18 08:11:56;;;;;;;5.60;1.87;;;;;;;30.57;48.89;100932.06;4978634;28;20885;-74
2022/07/18 08:14:21;;;;;;;4.63;2.00;;;;;;;30.46;49.67;100934.78;4953934;28;20186;-76
2022/07/18 08:16:47;;;;;;;3.30;1.70;;;;;;;30.42;49.87;100927.00;4948188;29;20218;-76
2022/07/18 08:19:12;;;;;;;3.40;1.80;;;;;;;30.34;49.93;100925.97;4964648;28;20697;-74
2022/07/18 08:21:37;;;;;;;3.77;2.00;;;;;;;30.18;50.27;100935.22;4945911;28;20221;-75
2022/07/18 08:24:03;;;;;;;2.83;2.00;;;;;;;30.10;50.33;100930.53;4952609;28;20202;-75
2022/07/18 08:26:28;;;;;;;3.27;1.90;;;;;;;30.06;50.50;100928.22;4957310;28;20190;-75
2022/07/18 08:28:54;;;;;;;3.83;1.73;;;;;;;29.96;50.75;100922.78;4942067;28;20217;-76
2022/07/18 08:31:19;;;;;;;4.17;1.93;;;;;;;29.88;50.98;100922.53;4944538;28;20170;-75
2022/07/18 08:33:45;;;;;;;2.77;1.60;;;;;;;29.85;51.16;100920.13;4959383;28;20277;-75
2022/07/18 08:36:11;;;;;;;4.53;1.70;;;;;;;29.80;51.41;100918.66;4972071;28;20216;-74
2022/07/18 08:38:37;;;;;;;2.63;1.70;;;;;;;29.68;51.75;100914.34;4953854;28;20306;-75
2022/07/18 08:41:03;;;;;;;2.07;1.63;;;;;;;29.57;51.63;100917.00;4969206;28;20186;-74
2022/07/18 08:43:29;;;;;;;2.23;1.80;;;;;;;29.49;51.59;100917.63;4953366;28;20178;-75
2022/07/18 08:45:56;;;;;;;1.67;1.57;;;;;;;29.36;51.57;100917.75;4950527;28;20197;-76
2022/07/18 08:48:22;;;;;;;1.93;1.73;;;;;;;29.27;51.96;100918.44;4952399;28;20225;-74
2022/07/18 08:50:48;;;;;;;3.20;2.07;;;;;;;29.06;52.17;100916.47;4952906;28;20174;-75
2022/07/18 08:53:15;;;;;;;2.87;1.93;;;;;;;28.85;52.21;100898.50;4968196;28;20241;-74
2022/07/18 08:55:41;;;;;;;3.37;2.00;;;;;;;28.67;52.73;100911.38;4962751;28;20192;-76
2022/07/18 08:58:07;;;;;;;3.17;2.00;;;;;;;28.52;52.71;100907.22;4965557;28;20214;-74
2022/07/18 09:00:35;;;;;;;3.70;1.80;;;;;;;28.42;53.06;100901.75;4960927;28;20181;-73
2022/07/18 09:03:02;;;;;;;3.80;2.13;;;;;;;28.24;53.19;100898.66;4944948;28;20214;-74
2022/07/18 09:05:28;;;;;;;3.47;1.73;;;;;;;28.24;53.35;100893.31;4970076;28;20197;-75
2022/07/18 09:08:17;;;;;;;2.50;1.87;;;;;;;28.33;53.47;100892.63;4965609;28;20213;-75
2022/07/18 09:10:54;;;;;;;3.57;2.20;;;;;;;28.33;53.62;100902.44;4956766;28;20214;-75
2022/07/18 09:13:42;;;;;;;3.83;1.90;;;;;;;28.20;53.30;100891.84;4978065;28;20268;-76
2022/07/18 09:16:13;;;;;;;4.10;2.10;;;;;;;28.23;53.53;100903.09;4948501;28;20297;-74
2022/07/18 09:18:41;;;;;;;3.00;1.43;;;;;;;28.12;53.11;100898.59;4969282;28;20221;-75
2022/07/18 09:21:07;;;;;;;2.47;2.00;;;;;;;28.27;53.67;100898.44;4984691;28;20193;-75
2022/07/18 09:23:35;;;;;;;2.13;1.97;;;;;;;28.36;53.66;100891.56;4971264;28;20190;-75
2022/07/18 09:26:01;;;;;;;3.77;1.70;;;;;;;28.40;53.32;100898.34;4945411;28;20212;-76
2022/07/18 09:28:27;;;;;;;3.43;2.00;;;;;;;28.55;53.57;100891.84;4968366;28;20312;-76
2022/07/18 09:30:53;;;;;;;4.77;2.13;;;;;;;28.47;53.50;100885.41;4969832;28;20252;-75
2022/07/18 09:33:21;;;;;;;4.17;2.00;;;;;;;28.57;53.86;100881.94;4954447;28;20284;-75
2022/07/18 09:35:53;;;;;;;6.63;2.20;;;;;;;28.72;53.91;100884.41;4963371;28;20561;-76
2022/07/18 09:38:21;;;;;;;3.53;2.00;;;;;;;28.90;53.58;100888.34;4969108;28;20216;-75
2022/07/18 09:40:49;;;;;;;4.30;2.03;;;;;;;28.93;53.80;100886.41;4968790;28;20429;-76
2022/07/18 09:43:17;;;;;;;4.07;1.90;;;;;;;29.04;53.56;100883.75;4962409;28;20265;-75
2022/07/18 09:45:48;;;;;;;2.30;2.10;;;;;;;29.05;53.32;100882.78;4952118;28;20190;-76
2022/07/18 09:48:16;;;;;;;5.60;2.60;;;;;;;28.97;53.15;100894.06;4969365;28;20566;-76
2022/07/18 09:50:48;;;;;;;3.57;1.80;;;;;;;28.93;53.42;100881.94;4970449;28;20212;-76
2022/07/18 09:53:15;;;;;;;4.70;2.07;;;;;;;28.98;53.08;100882.44;4969408;28;20190;-76
2022/07/18 09:56:06;;;;;;;3.30;2.10;;;;;;;28.97;53.14;100874.53;4969001;28;20194;-76
2022/07/18 09:58:34;;;;;;;3.47;2.17;;;;;;;29.00;53.24;100869.84;4962803;28;20210;-75
2022/07/18 10:01:02;;;;;;;2.60;2.10;;;;;;;29.08;53.31;100865.72;4947038;28;20186;-73
2022/07/18 10:03:28;;;;;;;2.27;1.70;;;;;;;29.17;53.10;100865.84;4964473;28;20272;-76
2022/07/18 10:05:55;;;;;;;4.80;1.93;;;;;;;29.11;52.61;100869.00;4963777;28;20244;-76
2022/07/18 10:08:23;;;;;;;2.83;2.10;;;;;;;29.15;52.76;100866.94;4969258;28;20325;-76
2022/07/18 10:10:50;;;;;;;3.73;2.47;;;;;;;29.27;52.31;100863.31;4969500;28;21155;-76
2022/07/18 10:13:17;;;;;;;6.47;2.03;;;;;;;29.34;52.17;100861.84;4971255;28;20669;-76
2022/07/18 10:15:44;;;;;;;2.57;2.20;;;;;;;29.44;52.22;100859.31;4965493;28;20209;-76
2022/07/18 10:18:12;;;;;;;3.23;2.00;;;;;;;29.46;51.54;100865.38;4969795;28;20206;-75
2022/07/18 10:20:57;;;;;;;3.67;2.30;;;;;;;29.62;51.20;100856.13;4944437;28;20246;-76
2022/07/18 10:23:31;;;;;;;2.80;1.93;;;;;;;29.79;51.17;100847.63;4935041;28;20289;-77
2022/07/18 10:26:18;;;;;;;2.40;1.90;;;;;;;29.87;51.25;100849.66;4973264;28;20228;-76
2022/07/18 10:28:59;;;;;;;3.27;1.67;;;;;;;29.91;51.27;100845.78;4960635;28;20211;-76
2022/07/18 10:31:34;;;;;;;3.57;1.93;;;;;;;30.13;50.54;100844.00;4963731;28;20462;-76
2022/07/18 10:34:05;;;;;;;2.77;1.87;;;;;;;30.09;50.20;100846.09;4972484;28;20197;-76
2022/07/18 10:36:31;;;;;;;2.13;1.93;;;;;;;30.23;50.15;100842.28;4977793;28;20190;-75
2022/07/18 10:39:08;;;;;;;3.13;2.10;;;;;;;30.36;51.12;100843.91;4968146;28;20210;-77
2022/07/18 10:42:01;;;;;;;4.13;2.10;;;;;;;30.55;51.04;100841.38;4967954;28;20202;-75
2022/07/18 10:44:29;;;;;;;3.03;1.87;;;;;;;30.62;51.12;100844.41;4968901;28;20747;-76
2022/07/18 10:47:09;;;;;;;3.87;1.90;;;;;;;30.66;50.86;100836.97;4957955;28;20209;-76
2022/07/18 10:49:50;;;;;;;2.90;2.00;;;;;;;30.66;50.63;100835.13;4958979;28;20194;-76
2022/07/18 10:52:25;;;;;;;2.57;1.90;;;;;;;30.58;50.68;100826.94;4977649;28;20189;-76
2022/07/18 10:55:05;;;;;;;2.43;1.90;;;;;;;30.61;51.12;100829.34;4967865;28;20188;-76
2022/07/18 10:57:30;;;;;;;3.63;1.77;;;;;;;30.77;51.21;100825.38;4963679;28;20276;-76
2022/07/18 11:00:00;;;;;;;4.43;1.90;;;;;;;30.80;51.27;100817.91;4960636;28;20717;-76
2022/07/18 11:02:36;;;;;;;4.33;2.07;;;;;;;30.68;50.31;100819.00;4960896;28;20304;-76
2022/07/18 11:05:23;;;;;;;3.13;2.05;;;;;;;30.84;50.69;100810.47;4962259;28;20185;-75
2022/07/18 11:08:01;;;;;;;3.40;1.70;;;;;;;30.91;50.50;100808.97;4957701;28;20301;-76
2022/07/18 11:10:50;;;;;;;1.98;1.70;;;;;;;30.94;50.44;100802.50;4961495;28;20232;-76
2022/07/18 11:13:24;;;;;;;4.20;2.30;;;;;;;30.96;50.39;100789.88;4947556;28;20249;-76
2022/07/18 11:15:58;;;;;;;2.90;1.73;;;;;;;31.01;51.26;100799.16;4952468;28;20674;-76
2022/07/18 11:18:25;;;;;;;3.25;2.25;;;;;;;31.16;50.54;100796.16;4951745;28;20213;-77
2022/07/18 11:20:51;;;;;;;2.47;1.83;;;;;;;31.26;50.33;100797.00;4953458;28;20187;-77
2022/07/18 11:23:23;;;;;;;2.50;1.90;;;;;;;31.27;50.79;100800.53;4958529;28;20342;-77
2022/07/18 11:25:50;;;;;;;4.05;1.67;;;;;;;31.36;51.15;100799.72;4955188;28;20210;-76
2022/07/18 11:28:16;;;;;;;1.90;1.70;;;;;;;31.50;51.72;100792.28;4967153;28;20232;-76